Time;durP1;ratioP1;P1;durP2;ratioP2;P2;SDS_P1;SDS_P2;PMS_P1;PMS_P2;Temp;Humidity;BMP_temperature;BMP_pressure;BME280_temperature;BME280_humidity;BME280_pressure;Samples;Min_cycle;Max_cycle;Signal;HPM_P1;HPM_P2
2021/05/16 00:00:25;;;;;;;18.02;12.43;;;;;;;12.79;70.63;99047.19;1685990;84;21593;-72
2021/05/16 00:02:52;;;;;;;17.12;12.33;;;;;;;12.78;70.66;99040.70;1709160;84;21046;-73
2021/05/16 00:05:21;;;;;;;18.30;12.95;;;;;;;12.66;70.72;99042.66;1700772;84;21086;-73
2021/05/16 00:07:49;;;;;;;18.80;13.20;;;;;;;12.54;71.09;99043.75;1703278;84;21074;-73
2021/05/16 00:10:16;;;;;;;19.02;12.33;;;;;;;12.44;71.24;99045.06;1687357;84;21094;-73
2021/05/16 00:12:44;;;;;;;17.67;13.08;;;;;;;12.47;71.17;99051.43;1680867;85;21090;-73
2021/05/16 00:15:14;;;;;;;20.68;13.32;;;;;;;12.41;70.98;99044.02;1682381;84;22223;-74
2021/05/16 00:17:40;;;;;;;17.20;12.55;;;;;;;12.41;70.98;99044.02;1680769;85;21086;-74
2021/05/16 00:20:11;;;;;;;15.48;11.63;;;;;;;12.31;71.44;99045.31;1680907;84;21098;-73
2021/05/16 00:22:38;;;;;;;14.07;9.90;;;;;;;12.19;71.71;99053.88;1705790;84;21129;-74
2021/05/16 00:25:08;;;;;;;11.90;9.63;;;;;;;12.03;71.96;99054.88;1628718;88;21053;-74
2021/05/16 00:27:35;;;;;;;15.35;11.78;;;;;;;11.91;72.34;99060.23;1683647;84;21027;-73
2021/05/16 00:30:06;;;;;;;17.30;11.50;;;;;;;11.93;72.38;99059.62;1681078;84;21570;-73
2021/05/16 00:32:32;;;;;;;15.08;11.10;;;;;;;11.92;72.70;99055.30;1692205;84;21066;-73
2021/05/16 00:34:59;;;;;;;12.98;10.63;;;;;;;11.88;72.74;99063.16;1702890;84;21138;-73
2021/05/16 00:37:25;;;;;;;14.07;10.93;;;;;;;11.83;72.94;99062.72;1681385;84;21165;-73
2021/05/16 00:39:55;;;;;;;15.40;11.55;;;;;;;11.76;72.92;99062.89;1680883;85;21638;-72
2021/05/16 00:42:21;;;;;;;18.15;12.00;;;;;;;11.78;72.95;99068.41;1681056;85;21086;-73
2021/05/16 00:45:12;;;;;;;18.10;13.15;;;;;;;11.91;72.87;99064.20;1700821;84;21159;-73
2021/05/16 00:47:39;;;;;;;17.67;13.48;;;;;;;11.89;73.02;99065.31;1701508;83;21621;-73
2021/05/16 00:50:09;;;;;;;17.27;13.05;;;;;;;11.83;73.17;99062.72;1683665;85;21609;-73
2021/05/16 00:52:35;;;;;;;17.15;12.58;;;;;;;11.77;73.33;99059.28;1719057;83;21058;-73
2021/05/16 00:55:04;;;;;;;15.15;11.60;;;;;;;11.79;73.33;99065.27;1665134;83;21077;-73
2021/05/16 00:57:31;;;;;;;16.87;12.78;;;;;;;11.93;72.96;99075.52;1701140;83;21042;-73
2021/05/16 00:59:58;;;;;;;18.20;13.35;;;;;;;11.91;72.97;99078.78;1704569;83;21082;-73
2021/05/16 01:02:25;;;;;;;19.10;14.15;;;;;;;11.83;73.08;99080.41;1719050;83;21019;-73
2021/05/16 01:04:52;;;;;;;23.73;15.20;;;;;;;11.73;73.44;99073.27;1719878;83;21112;-73
2021/05/16 01:07:19;;;;;;;23.52;15.53;;;;;;;11.78;73.52;99069.73;1699573;83;21089;-73
2021/05/16 01:09:46;;;;;;;21.23;15.65;;;;;;;11.93;73.25;99070.23;1711962;83;21109;-72
2021/05/16 01:12:14;;;;;;;19.50;14.80;;;;;;;11.92;73.38;99071.19;1685832;85;21033;-73
2021/05/16 01:14:45;;;;;;;15.08;11.45;;;;;;;11.87;73.46;99066.78;1672022;83;21050;-73
2021/05/16 01:17:13;;;;;;;17.07;12.20;;;;;;;11.73;73.39;99073.27;1716066;83;21038;-73
2021/05/16 01:19:41;;;;;;;16.45;12.65;;;;;;;11.55;73.39;99073.03;1714516;83;21112;-73
2021/05/16 01:22:08;;;;;;;16.25;12.28;;;;;;;11.50;73.48;99076.56;1676393;85;21069;-73
2021/05/16 01:24:37;;;;;;;16.95;13.20;;;;;;;11.42;73.82;99079.00;1721314;83;21090;-73
2021/05/16 01:27:12;;;;;;;18.62;14.38;;;;;;;11.31;74.28;99077.28;1695859;83;21082;-73
2021/05/16 01:29:40;;;;;;;17.48;13.35;;;;;;;11.22;74.84;99070.95;1678845;85;21256;-74
2021/05/16 01:32:11;;;;;;;15.85;12.95;;;;;;;11.30;74.84;99073.80;1722866;83;21026;-74
2021/05/16 01:34:37;;;;;;;16.15;13.15;;;;;;;11.47;74.59;99070.19;1694723;83;21129;-73
2021/05/16 01:37:04;;;;;;;15.80;12.10;;;;;;;11.48;74.48;99079.34;1703560;83;21665;-72
2021/05/16 01:39:31;;;;;;;15.00;11.55;;;;;;;11.44;74.75;99075.75;1715106;83;21062;-72
2021/05/16 01:41:58;;;;;;;15.68;11.65;;;;;;;11.40;74.57;99075.17;1722748;83;21037;-73
2021/05/16 01:44:26;;;;;;;14.40;11.33;;;;;;;11.30;74.42;99077.77;1721735;83;21629;-72
2021/05/16 01:46:52;;;;;;;14.53;11.35;;;;;;;11.23;74.41;99078.42;1712020;83;21573;-72
2021/05/16 01:49:19;;;;;;;15.18;11.78;;;;;;;11.08;74.88;99073.42;1710723;83;21088;-72
2021/05/16 01:51:45;;;;;;;15.43;12.03;;;;;;;10.95;75.38;99072.28;1683188;85;21078;-72
2021/05/16 01:54:12;;;;;;;17.45;12.25;;;;;;;10.92;75.60;99076.98;1680826;85;21673;-72
2021/05/16 01:56:39;;;;;;;13.88;11.18;;;;;;;10.88;75.48;99077.74;1690594;84;21557;-72
2021/05/16 01:59:06;;;;;;;12.28;10.32;;;;;;;10.90;75.37;99084.22;1689688;84;21542;-72
2021/05/16 02:01:33;;;;;;;13.80;11.65;;;;;;;10.99;75.21;99081.63;1708509;83;21646;-72
2021/05/16 02:04:01;;;;;;;13.93;12.18;;;;;;;10.99;75.16;99085.60;1704689;84;21090;-72
2021/05/16 02:06:28;;;;;;;15.72;12.37;;;;;;;10.92;75.28;99092.39;1688679;84;21086;-73
2021/05/16 02:08:56;;;;;;;12.13;10.45;;;;;;;10.89;75.45;99097.91;1680880;84;21605;-72
2021/05/16 02:11:28;;;;;;;12.20;10.13;;;;;;;10.88;75.39;99098.91;1680867;85;21345;-73
2021/05/16 02:13:57;;;;;;;12.28;10.15;;;;;;;10.99;75.20;99102.80;1699784;84;21058;-73
2021/05/16 02:16:23;;;;;;;12.35;10.32;;;;;;;10.98;75.11;99101.14;1702839;84;21058;-73
2021/05/16 02:18:54;;;;;;;13.90;11.28;;;;;;;10.92;75.36;99109.58;1682450;84;21665;-73
2021/05/16 02:21:30;;;;;;;13.48;11.15;;;;;;;10.90;75.59;99110.67;1680715;85;21641;-73
2021/05/16 02:23:56;;;;;;;13.40;9.93;;;;;;;10.95;75.59;99102.70;1700962;84;21537;-73
2021/05/16 02:26:25;;;;;;;13.28;11.33;;;;;;;11.06;75.05;99110.23;1689671;84;21031;-73
2021/05/16 02:28:51;;;;;;;13.08;10.75;;;;;;;10.96;75.41;99108.36;1681392;84;21122;-73
2021/05/16 02:31:18;;;;;;;14.98;11.80;;;;;;;10.91;75.87;99107.90;1701043;84;21058;-73
2021/05/16 02:33:44;;;;;;;15.03;11.45;;;;;;;10.87;75.91;99106.48;1698119;84;21082;-73
2021/05/16 02:36:12;;;;;;;12.18;10.63;;;;;;;10.96;75.95;99113.65;1708798;84;21142;-73
2021/05/16 02:38:39;;;;;;;11.50;10.30;;;;;;;11.14;75.56;99118.39;1709116;84;21122;-72
2021/05/16 02:41:06;;;;;;;14.47;11.15;;;;;;;11.18;75.47;99117.17;1684568;84;21082;-73
2021/05/16 02:43:33;;;;;;;14.33;11.30;;;;;;;11.13;75.61;99115.39;1682131;84;21031;-72
2021/05/16 02:45:59;;;;;;;14.00;10.88;;;;;;;11.10;75.63;99119.59;1695755;84;21054;-72
2021/05/16 02:48:26;;;;;;;12.98;10.65;;;;;;;11.16;75.61;99123.06;1697246;83;21144;-73
2021/05/16 02:50:53;;;;;;;15.23;12.20;;;;;;;11.34;75.39;99124.66;1718679;83;21090;-73
2021/05/16 02:53:22;;;;;;;16.70;13.00;;;;;;;11.41;75.60;99110.45;1693602;83;21090;-73
2021/05/16 02:55:51;;;;;;;15.20;11.78;;;;;;;11.45;75.85;99115.83;1698571;83;21081;-74
2021/05/16 02:58:17;;;;;;;15.78;12.07;;;;;;;11.50;76.04;99114.95;1707528;83;21057;-74
2021/05/16 03:00:50;;;;;;;13.63;11.07;;;;;;;11.68;75.68;99124.97;1714851;83;21197;-74
2021/05/16 03:03:17;;;;;;;14.20;12.03;;;;;;;11.79;75.36;99128.84;1695911;83;21062;-74
2021/05/16 03:05:43;;;;;;;13.08;11.48;;;;;;;11.70;75.23;99132.28;1667499;85;21030;-73
2021/05/16 03:08:10;;;;;;;16.30;12.23;;;;;;;11.59;75.60;99134.53;1721245;83;21082;-73
2021/05/16 03:10:38;;;;;;;16.17;11.75;;;;;;;11.62;75.80;99127.64;1708657;83;21109;-73
2021/05/16 03:13:07;;;;;;;13.93;11.55;;;;;;;11.78;75.83;99124.04;1693761;85;21074;-74
2021/05/16 03:15:33;;;;;;;13.98;11.68;;;;;;;11.91;75.86;99114.55;1673475;85;21057;-73
2021/05/16 03:18:01;;;;;;;14.25;12.00;;;;;;;11.95;76.05;99118.64;1694386;83;21069;-73
2021/05/16 03:20:29;;;;;;;13.32;11.12;;;;;;;11.98;76.36;99118.86;1663738;85;21132;-73
2021/05/16 03:22:56;;;;;;;16.05;11.38;;;;;;;12.08;76.83;99114.94;1717072;83;21058;-73
2021/05/16 03:25:23;;;;;;;14.55;11.53;;;;;;;12.31;76.33;99123.53;1717677;83;21063;-73
2021/05/16 03:27:50;;;;;;;13.72;11.78;;;;;;;12.40;75.97;99122.71;1694210;83;21070;-74
2021/05/16 03:30:17;;;;;;;13.68;11.00;;;;;;;12.56;76.65;99120.88;1703148;83;21078;-74
2021/05/16 03:32:43;;;;;;;11.93;9.98;;;;;;;13.10;76.21;99125.34;1722845;83;21066;-74
2021/05/16 03:35:12;;;;;;;18.30;13.68;;;;;;;13.85;74.18;99130.04;1696700;83;21169;-74
2021/05/16 03:37:40;;;;;;;17.15;13.13;;;;;;;14.51;72.47;99130.87;1673513;85;21064;-73
2021/05/16 03:40:09;;;;;;;16.45;12.33;;;;;;;15.05;70.83;99134.13;1709658;83;20992;-74
2021/05/16 03:42:36;;;;;;;15.30;12.53;;;;;;;15.52;69.78;99145.02;1722838;83;21046;-74
2021/05/16 03:45:05;;;;;;;16.17;12.88;;;;;;;15.92;68.70;99141.02;1699535;83;21043;-73
2021/05/16 03:47:32;;;;;;;16.20;12.15;;;;;;;16.35;67.55;99145.05;1721644;83;21094;-74
2021/05/16 03:49:58;;;;;;;14.75;13.15;;;;;;;16.71;66.06;99160.39;1701362;83;21047;-73
2021/05/16 03:52:24;;;;;;;15.50;12.65;;;;;;;16.98;64.98;99153.14;1722516;83;21070;-71
2021/05/16 03:54:52;;;;;;;17.92;12.20;;;;;;;17.25;64.18;99150.31;1697363;83;21173;-73
2021/05/16 03:57:21;;;;;;;16.40;12.70;;;;;;;17.65;63.12;99148.66;1720776;83;21062;-73
2021/05/16 03:59:47;;;;;;;16.45;12.70;;;;;;;17.98;62.21;99153.97;1700744;83;21118;-73
2021/05/16 04:02:14;;;;;;;15.88;13.15;;;;;;;18.26;61.65;99154.91;1718383;83;21101;-72
2021/05/16 04:04:41;;;;;;;15.43;12.43;;;;;;;18.62;60.67;99151.26;1723058;83;21082;-72
2021/05/16 04:07:07;;;;;;;14.25;12.15;;;;;;;18.97;60.01;99150.93;1715489;83;21086;-72
2021/05/16 04:09:35;;;;;;;14.23;11.90;;;;;;;19.39;58.95;99152.30;1702606;83;21573;-73
2021/05/16 04:12:02;;;;;;;15.48;11.88;;;;;;;19.75;57.99;99143.61;1694104;83;21581;-72
2021/05/16 04:14:30;;;;;;;13.30;11.40;;;;;;;20.11;57.17;99141.58;1665881;85;21017;-72
2021/05/16 04:16:57;;;;;;;15.38;11.83;;;;;;;20.53;56.24;99140.59;1706575;83;21043;-71
2021/05/16 04:19:25;;;;;;;13.85;10.90;;;;;;;20.94;54.95;99139.23;1694326;83;21149;-72
2021/05/16 04:21:52;;;;;;;13.83;10.58;;;;;;;21.16;53.86;99139.25;1708468;83;21026;-73
2021/05/16 04:24:18;;;;;;;12.10;10.85;;;;;;;21.34;53.43;99131.55;1704005;83;21116;-73
2021/05/16 04:26:44;;;;;;;12.40;10.65;;;;;;;21.57;52.71;99122.47;1694837;83;21070;-73
2021/05/16 04:29:11;;;;;;;11.50;10.30;;;;;;;21.71;52.63;99136.33;1709273;83;21065;-73
2021/05/16 04:31:38;;;;;;;11.28;9.98;;;;;;;21.99;51.97;99134.15;1700900;83;21081;-73
2021/05/16 04:34:04;;;;;;;12.37;11.08;;;;;;;22.29;51.57;99133.92;1682150;83;21089;-73
2021/05/16 04:36:32;;;;;;;13.93;11.33;;;;;;;22.57;50.60;99128.98;1719650;83;21613;-73
2021/05/16 04:38:59;;;;;;;13.78;11.83;;;;;;;22.50;50.03;99134.88;1711903;83;21078;-73
2021/05/16 04:41:25;;;;;;;12.15;10.95;;;;;;;22.17;50.74;99133.63;1693960;85;21081;-74
2021/05/16 04:43:52;;;;;;;14.40;11.57;;;;;;;21.91;51.37;99127.59;1699270;83;21062;-73
2021/05/16 04:46:18;;;;;;;11.65;10.45;;;;;;;21.87;51.88;99132.53;1720267;83;21031;-73
2021/05/16 04:48:45;;;;;;;12.93;11.57;;;;;;;22.24;52.05;99133.16;1715148;83;21050;-73
2021/05/16 04:51:11;;;;;;;12.95;11.53;;;;;;;22.66;50.73;99123.75;1668674;85;21073;-73
2021/05/16 04:53:38;;;;;;;12.47;11.18;;;;;;;22.77;49.95;99124.20;1696415;83;21133;-73
2021/05/16 04:56:05;;;;;;;15.28;12.58;;;;;;;22.59;50.43;99125.58;1694263;84;21038;-73
2021/05/16 04:58:31;;;;;;;13.22;11.55;;;;;;;22.57;50.37;99123.59;1700682;83;21082;-72
2021/05/16 05:00:58;;;;;;;16.20;13.13;;;;;;;22.72;50.58;99116.70;1723028;83;21165;-73
2021/05/16 05:03:24;;;;;;;14.70;12.47;;;;;;;22.86;50.17;99120.27;1721999;83;21593;-73
2021/05/16 05:05:52;;;;;;;14.03;12.10;;;;;;;22.90;50.18;99118.82;1721560;83;21601;-72
2021/05/16 05:08:21;;;;;;;16.15;13.08;;;;;;;23.08;49.96;99118.23;1701315;83;21054;-72
2021/05/16 05:10:47;;;;;;;14.70;12.75;;;;;;;23.29;49.65;99110.52;1715180;83;21320;-72
2021/05/16 05:13:13;;;;;;;13.28;11.50;;;;;;;23.42;49.36;99111.04;1722800;83;21042;-72
2021/05/16 05:15:40;;;;;;;14.25;12.75;;;;;;;23.68;49.09;99106.16;1704950;83;21058;-73
2021/05/16 05:18:06;;;;;;;15.75;13.70;;;;;;;23.76;48.92;99100.22;1702583;83;21712;-72
2021/05/16 05:20:34;;;;;;;16.10;13.20;;;;;;;23.88;48.69;99102.59;1704818;83;21578;-73
2021/05/16 05:23:01;;;;;;;11.75;10.43;;;;;;;23.96;48.15;99095.63;1699360;83;21082;-73
2021/05/16 05:25:28;;;;;;;14.45;10.88;;;;;;;24.07;47.46;99090.62;1719034;83;21066;-73
2021/05/16 05:27:56;;;;;;;13.28;11.18;;;;;;;24.09;47.31;99085.84;1709572;83;21099;-73
2021/05/16 05:30:24;;;;;;;14.25;12.75;;;;;;;24.13;47.46;99081.67;1715375;83;21022;-73
2021/05/16 05:32:50;;;;;;;13.38;11.97;;;;;;;24.11;47.83;99081.08;1704258;83;21062;-72
2021/05/16 05:35:16;;;;;;;13.40;11.57;;;;;;;24.00;47.60;99075.29;1716575;83;21688;-73
2021/05/16 05:37:43;;;;;;;14.93;12.07;;;;;;;24.09;47.46;99081.80;1712184;83;21058;-73
2021/05/16 05:40:11;;;;;;;15.40;11.95;;;;;;;24.23;47.18;99086.64;1705436;83;21050;-74
2021/05/16 05:42:39;;;;;;;11.43;10.23;;;;;;;24.30;46.63;99089.62;1694859;83;21580;-73
2021/05/16 05:45:06;;;;;;;12.82;10.35;;;;;;;24.22;46.54;99087.14;1695913;83;21017;-74
2021/05/16 05:47:32;;;;;;;10.20;9.10;;;;;;;24.07;47.18;99088.77;1699692;83;21617;-73
2021/05/16 05:49:59;;;;;;;13.05;10.70;;;;;;;24.13;46.87;99093.83;1683767;84;21100;-74
2021/05/16 05:52:26;;;;;;;11.03;9.18;;;;;;;24.26;46.38;99097.85;1695038;84;21134;-73
2021/05/16 05:54:52;;;;;;;12.20;10.55;;;;;;;24.45;46.58;99092.56;1699492;84;21152;-73
2021/05/16 05:57:18;;;;;;;16.50;9.93;;;;;;;24.56;45.95;99083.78;1709005;83;21011;-73
2021/05/16 05:59:45;;;;;;;10.23;9.03;;;;;;;24.67;46.45;99093.95;1691134;84;21102;-74
2021/05/16 06:02:11;;;;;;;9.75;8.35;;;;;;;24.89;45.25;99094.97;1680601;85;21046;-73
2021/05/16 06:04:37;;;;;;;12.68;9.33;;;;;;;24.99;44.64;99093.15;1699098;84;21050;-73
2021/05/16 06:07:04;;;;;;;44.53;39.92;;;;;;;25.07;43.89;99092.05;1686098;84;21034;-73
2021/05/16 06:09:34;;;;;;;17.57;13.50;;;;;;;25.16;44.19;99096.14;1701048;83;21075;-75
2021/05/16 06:12:04;;;;;;;10.55;9.23;;;;;;;25.24;43.77;99091.80;1697968;83;21036;-74
2021/05/16 06:14:32;;;;;;;10.53;8.90;;;;;;;25.24;43.75;99091.80;1687961;84;21055;-75
2021/05/16 06:17:00;;;;;;;11.88;8.90;;;;;;;25.21;45.12;99094.14;1684641;84;21039;-72
2021/05/16 06:19:27;;;;;;;9.85;8.85;;;;;;;25.38;43.86;99093.09;1694724;83;21102;-73
2021/05/16 06:21:54;;;;;;;13.70;8.53;;;;;;;25.39;43.29;99071.22;1702469;84;21011;-73
2021/05/16 06:24:20;;;;;;;9.25;8.35;;;;;;;25.67;42.83;99099.17;1708638;84;21593;-74
2021/05/16 06:26:47;;;;;;;5.83;4.70;;;;;;;25.62;42.54;99100.36;1693701;83;21047;-73
2021/05/16 06:29:14;;;;;;;5.65;4.83;;;;;;;25.39;42.40;99096.92;1708042;84;21031;-73
2021/05/16 06:31:42;;;;;;;6.08;4.08;;;;;;;25.31;42.28;99103.41;1701950;84;21010;-72
2021/05/16 06:34:09;;;;;;;4.97;3.92;;;;;;;25.23;40.86;99117.23;1696334;83;21146;-73
2021/05/16 06:36:37;;;;;;;7.10;4.80;;;;;;;25.04;41.14;99106.84;1708618;84;21000;-68
2021/05/16 06:39:05;;;;;;;5.90;4.55;;;;;;;24.98;42.66;99112.59;1708443;83;21035;-69
2021/05/16 06:41:31;;;;;;;5.42;4.20;;;;;;;25.02;42.83;99107.04;1692383;84;21098;-67
2021/05/16 06:43:59;;;;;;;5.22;4.20;;;;;;;25.08;41.79;99099.09;1684394;84;21071;-68
2021/05/16 06:46:27;;;;;;;7.47;6.15;;;;;;;25.03;40.69;99107.35;1700350;84;21043;-68
2021/05/16 06:48:55;;;;;;;5.33;4.67;;;;;;;24.98;40.40;99105.01;1689361;84;21050;-68
2021/05/16 06:51:21;;;;;;;5.08;4.33;;;;;;;24.97;41.33;99103.34;1697443;82;21058;-68
2021/05/16 06:53:48;;;;;;;6.10;5.03;;;;;;;24.95;41.00;99109.48;1711201;83;21159;-68
2021/05/16 06:56:15;;;;;;;6.72;5.80;;;;;;;24.87;41.61;99103.81;1710235;83;21105;-67
2021/05/16 06:58:42;;;;;;;5.75;4.65;;;;;;;24.85;42.33;99100.52;1693599;83;21187;-68
2021/05/16 07:01:09;;;;;;;8.40;6.40;;;;;;;24.96;42.73;99093.56;1693487;85;21050;-67
2021/05/16 07:03:37;;;;;;;7.08;5.65;;;;;;;25.05;42.39;99102.25;1719040;83;21071;-67
2021/05/16 07:06:05;;;;;;;5.62;4.62;;;;;;;25.09;43.19;99100.25;1722794;83;21111;-68
2021/05/16 07:08:33;;;;;;;4.97;4.35;;;;;;;25.05;41.81;99102.25;1722601;83;21109;-67
2021/05/16 07:11:02;;;;;;;4.75;3.72;;;;;;;24.90;42.06;99104.75;1722833;83;21068;-67
2021/05/16 07:13:30;;;;;;;4.33;3.50;;;;;;;24.79;41.22;99104.90;1698794;83;21620;-67
2021/05/16 07:15:56;;;;;;;4.28;3.33;;;;;;;24.72;41.65;99105.98;1694274;83;21061;-68
2021/05/16 07:18:23;;;;;;;6.00;3.45;;;;;;;24.78;41.28;99099.72;1694004;85;21066;-68
2021/05/16 07:20:51;;;;;;;4.40;3.35;;;;;;;24.79;41.08;99106.78;1694163;85;21066;-67
2021/05/16 07:23:18;;;;;;;6.10;3.67;;;;;;;24.83;41.33;99108.00;1714926;83;21109;-67
2021/05/16 07:25:45;;;;;;;4.67;3.70;;;;;;;24.77;40.97;99113.77;1722816;83;21615;-67
2021/05/16 07:28:11;;;;;;;6.70;3.52;;;;;;;24.74;41.70;99112.02;1723008;83;21545;-67
2021/05/16 07:30:37;;;;;;;3.92;2.75;;;;;;;24.75;41.24;99116.37;1722845;83;21094;-67
2021/05/16 07:33:04;;;;;;;3.58;2.90;;;;;;;24.84;41.00;99125.36;1705017;83;21589;-67
2021/05/16 07:35:30;;;;;;;3.75;2.90;;;;;;;24.96;40.72;99118.75;1694170;85;21133;-67
2021/05/16 07:37:57;;;;;;;3.77;2.92;;;;;;;24.97;40.00;99124.45;1694120;85;21025;-67
2021/05/16 07:40:24;;;;;;;3.60;2.70;;;;;;;24.95;40.19;99118.45;1697333;83;21661;-67
2021/05/16 07:42:50;;;;;;;3.77;2.70;;;;;;;24.90;39.90;99126.38;1723102;83;21054;-66
2021/05/16 07:45:19;;;;;;;3.30;2.83;;;;;;;24.81;39.81;99122.25;1722992;83;21577;-67
2021/05/16 07:47:45;;;;;;;4.75;3.12;;;;;;;24.70;40.15;99112.42;1723032;83;21054;-68
2021/05/16 07:50:12;;;;;;;4.60;3.30;;;;;;;24.54;39.41;99105.62;1716276;83;21283;-67
2021/05/16 07:52:39;;;;;;;3.00;2.47;;;;;;;24.40;39.47;99101.34;1680965;85;21070;-67
2021/05/16 07:55:06;;;;;;;4.55;3.30;;;;;;;24.41;40.44;99100.27;1681060;85;21118;-67
2021/05/16 07:57:35;;;;;;;4.60;3.12;;;;;;;24.40;40.36;99101.34;1680970;85;21027;-67
2021/05/16 08:00:01;;;;;;;3.50;3.10;;;;;;;24.42;39.83;99097.06;1680941;85;21700;-68
2021/05/16 08:02:28;;;;;;;4.03;2.60;;;;;;;24.51;40.17;99098.47;1707474;84;21050;-67
2021/05/16 08:04:55;;;;;;;4.40;3.10;;;;;;;24.53;39.46;99093.69;1708806;84;21548;-67
2021/05/16 08:07:21;;;;;;;3.62;3.00;;;;;;;24.59;39.74;99098.23;1709303;84;21622;-67
2021/05/16 08:09:48;;;;;;;4.47;2.90;;;;;;;24.59;40.36;99093.33;1709124;84;21583;-67
2021/05/16 08:12:15;;;;;;;3.17;2.87;;;;;;;24.64;40.79;99097.09;1686260;84;21062;-67
2021/05/16 08:14:42;;;;;;;4.00;3.22;;;;;;;24.67;39.93;99098.54;1680895;85;21066;-68
2021/05/16 08:17:08;;;;;;;4.35;2.98;;;;;;;24.61;40.00;99090.72;1680990;85;21074;-67
2021/05/16 08:19:35;;;;;;;4.20;2.60;;;;;;;24.67;39.85;99092.59;1691680;84;21034;-67
2021/05/16 08:22:03;;;;;;;3.47;2.55;;;;;;;24.69;38.90;99094.58;1709425;84;21083;-67
2021/05/16 08:24:30;;;;;;;5.47;3.10;;;;;;;24.64;39.25;99090.34;1709009;84;21586;-68
2021/05/16 08:26:56;;;;;;;4.12;2.90;;;;;;;24.66;39.82;99089.58;1709109;84;21676;-67
2021/05/16 08:29:22;;;;;;;3.22;2.60;;;;;;;24.64;39.18;99095.75;1701383;84;21574;-67
2021/05/16 08:31:49;;;;;;;4.97;2.80;;;;;;;24.60;38.35;99087.70;1705511;84;21567;-67
2021/05/16 08:34:16;;;;;;;5.35;2.80;;;;;;;24.51;38.65;99095.77;1709144;84;21650;-67
2021/05/16 08:36:42;;;;;;;4.40;2.70;;;;;;;24.46;40.21;99095.58;1709205;84;21042;-68
2021/05/16 08:39:09;;;;;;;3.58;2.33;;;;;;;24.46;40.07;99099.63;1705170;84;21111;-68
2021/05/16 08:41:35;;;;;;;3.30;2.60;;;;;;;24.55;40.77;99101.04;1680886;85;20995;-69
2021/05/16 08:44:03;;;;;;;3.05;2.33;;;;;;;24.60;40.14;99097.16;1685235;82;21114;-66
2021/05/16 08:46:30;;;;;;;2.55;2.30;;;;;;;24.63;39.30;99091.34;1705641;84;21030;-66
2021/05/16 08:48:57;;;;;;;2.72;2.30;;;;;;;24.55;38.76;99087.52;1709115;83;21622;-66
2021/05/16 08:51:23;;;;;;;4.33;2.40;;;;;;;24.54;37.75;99085.36;1709070;83;21062;-67
2021/05/16 08:53:49;;;;;;;4.40;2.20;;;;;;;24.56;38.29;99075.67;1694341;84;21158;-67
2021/05/16 08:56:16;;;;;;;3.33;2.25;;;;;;;24.57;37.71;99066.53;1680779;85;21058;-67
2021/05/16 08:58:42;;;;;;;2.83;2.42;;;;;;;24.60;38.02;99072.02;1680684;84;21125;-67
2021/05/16 09:01:22;;;;;;;4.03;2.33;;;;;;;24.65;39.28;99068.99;1680868;85;21058;-68
2021/05/16 09:03:50;;;;;;;2.83;2.50;;;;;;;24.79;39.74;99068.93;1635573;88;21067;-67
2021/05/16 09:06:16;;;;;;;3.80;2.55;;;;;;;24.93;39.47;99066.97;1683491;84;21018;-67
2021/05/16 09:08:43;;;;;;;3.58;2.47;;;;;;;25.00;40.35;99056.91;1680781;85;21035;-66
2021/05/16 09:11:10;;;;;;;3.50;2.40;;;;;;;25.02;38.81;99061.05;1636467;87;21082;-67
2021/05/16 09:13:45;;;;;;;2.83;2.25;;;;;;;24.93;38.84;99061.56;1681034;85;21098;-68
2021/05/16 09:16:15;;;;;;;2.83;2.30;;;;;;;24.87;38.92;99067.30;1636022;87;21042;-67
2021/05/16 09:18:46;;;;;;;4.75;2.50;;;;;;;24.85;38.72;99059.42;1680828;84;22315;-67
2021/05/16 09:21:29;;;;;;;5.37;2.75;;;;;;;24.92;37.77;99058.02;1680429;85;21077;-67
2021/05/16 09:24:06;;;;;;;4.42;2.40;;;;;;;24.99;38.36;99046.63;1636580;87;21074;-67
2021/05/16 09:26:51;;;;;;;3.37;2.25;;;;;;;25.09;40.22;99046.66;1707972;84;21032;-67
2021/05/16 09:29:33;;;;;;;3.08;2.50;;;;;;;25.17;38.60;99049.11;1709186;84;21067;-66
2021/05/16 09:32:01;;;;;;;7.05;2.52;;;;;;;25.19;39.73;99051.05;1709143;84;21099;-67
2021/05/16 09:34:28;;;;;;;4.15;2.55;;;;;;;25.27;38.85;99054.84;1697697;84;21122;-67
2021/05/16 09:36:56;;;;;;;3.37;2.52;;;;;;;25.32;37.78;99040.13;1680766;85;21050;-66
2021/05/16 09:39:27;;;;;;;3.77;2.20;;;;;;;25.37;37.86;99048.13;1680806;85;21066;-66
2021/05/16 09:42:02;;;;;;;2.85;2.47;;;;;;;25.41;38.61;99042.57;1680881;85;21090;-67
2021/05/16 09:44:48;;;;;;;5.58;2.92;;;;;;;25.44;38.17;99038.90;1701356;84;21056;-67
2021/05/16 09:47:20;;;;;;;17.92;3.87;;;;;;;25.42;37.38;99044.23;1709206;84;21055;-67
2021/05/16 09:49:55;;;;;;;6.00;2.67;;;;;;;25.39;39.13;99043.34;1709131;83;21051;-68
2021/05/16 09:52:31;;;;;;;3.08;2.30;;;;;;;25.41;38.89;99046.13;1711771;84;21126;-67
2021/05/16 09:55:05;;;;;;;4.05;2.67;;;;;;;25.34;38.34;99044.78;1709194;84;21095;-67
2021/05/16 09:57:39;;;;;;;3.47;2.92;;;;;;;25.21;38.97;99052.20;1709271;84;21538;-68
2021/05/16 10:00:10;;;;;;;8.00;3.17;;;;;;;25.18;39.37;99045.36;1709127;84;21162;-67
2021/05/16 10:02:36;;;;;;;2.62;2.30;;;;;;;25.27;40.07;99055.36;1709052;84;21067;-67
2021/05/16 10:05:04;;;;;;;4.08;2.70;;;;;;;25.40;39.28;99042.26;1709101;84;21023;-67
2021/05/16 10:07:30;;;;;;;4.33;2.70;;;;;;;25.50;38.98;99037.20;1708374;84;21062;-67
2021/05/16 10:09:57;;;;;;;5.30;2.35;;;;;;;25.59;38.84;99032.30;1698623;84;21086;-67
2021/05/16 10:12:23;;;;;;;3.83;2.70;;;;;;;25.66;38.95;99025.76;1680651;85;21130;-68
2021/05/16 10:14:58;;;;;;;4.47;2.40;;;;;;;25.71;39.09;99021.58;1680740;85;21094;-68
2021/05/16 10:17:24;;;;;;;3.58;2.50;;;;;;;25.77;39.28;99022.00;1706570;84;21134;-68
2021/05/16 10:19:51;;;;;;;5.55;2.30;;;;;;;25.79;38.20;99018.05;1709007;84;21074;-68
2021/05/16 10:22:18;;;;;;;2.65;2.17;;;;;;;25.77;38.39;99017.94;1709062;84;21594;-68
2021/05/16 10:24:49;;;;;;;3.00;2.30;;;;;;;25.70;37.71;99009.08;1709092;84;21071;-68
2021/05/16 10:27:29;;;;;;;3.40;2.60;;;;;;;25.53;37.75;99009.67;1684205;84;21069;-68
2021/05/16 10:30:02;;;;;;;16.07;3.02;;;;;;;25.38;37.82;99010.55;1636361;88;21110;-68
2021/05/16 10:32:35;;;;;;;4.12;2.10;;;;;;;25.29;38.98;99017.55;1680791;84;21137;-68
2021/05/16 10:35:10;;;;;;;4.55;2.52;;;;;;;25.26;38.61;99018.55;1620728;86;21190;-68
2021/05/16 10:37:48;;;;;;;3.50;2.10;;;;;;;25.19;38.91;99014.52;1680822;85;21062;-68
2021/05/16 10:40:34;;;;;;;3.20;2.27;;;;;;;25.07;38.52;99006.84;1680923;85;21015;-67
2021/05/16 10:43:04;;;;;;;4.33;2.50;;;;;;;24.89;39.06;99015.19;1680832;85;21074;-67
2021/05/16 10:45:38;;;;;;;4.20;2.20;;;;;;;24.74;39.61;99002.52;1679475;85;21087;-67
2021/05/16 10:48:16;;;;;;;2.70;2.30;;;;;;;24.75;39.69;99004.17;1679413;85;21115;-67
2021/05/16 10:50:51;;;;;;;5.15;2.30;;;;;;;24.83;39.41;98997.14;1679122;84;21181;-67
2021/05/16 10:53:22;;;;;;;8.63;3.08;;;;;;;24.92;39.41;98996.34;1679360;85;21741;-67
2021/05/16 10:56:13;;;;;;;8.40;2.60;;;;;;;24.90;39.11;98999.28;1705834;84;21031;-67
2021/05/16 10:58:45;;;;;;;2.60;2.00;;;;;;;24.85;39.44;98996.41;1708428;84;21154;-67
2021/05/16 11:01:30;;;;;;;2.47;2.10;;;;;;;24.70;39.06;98998.88;1709067;84;21070;-67
2021/05/16 11:05:54;;;;;;;5.60;3.10;;;;;;;24.49;39.84;98991.09;1818642;79;22564;-68
2021/05/16 11:08:35;;;;;;;5.20;2.58;;;;;;;24.36;40.24;98984.73;1791891;80;20998;-67
2021/05/16 11:11:22;;;;;;;21.68;3.30;;;;;;;24.35;40.22;98974.97;1791961;80;21296;-67
2021/05/16 11:13:49;;;;;;;3.60;2.58;;;;;;;24.39;40.32;98972.67;1784932;80;21043;-68
2021/05/16 11:16:15;;;;;;;5.05;2.10;;;;;;;24.48;40.23;98963.78;1738723;81;21022;-69
2021/05/16 11:18:42;;;;;;;2.47;2.00;;;;;;;24.51;39.70;98960.63;1757900;81;21112;-67
2021/05/16 11:21:08;;;;;;;3.27;2.10;;;;;;;24.64;40.06;98960.58;1759697;81;21019;-67
2021/05/16 11:23:40;;;;;;;3.10;1.80;;;;;;;24.83;39.82;98959.28;1759706;80;21066;-67
2021/05/16 11:26:10;;;;;;;2.02;1.80;;;;;;;25.02;38.47;98954.22;1759555;81;21038;-67
2021/05/16 11:28:40;;;;;;;5.92;2.27;;;;;;;25.13;38.58;98942.36;1759625;81;21082;-67
2021/05/16 11:31:15;;;;;;;2.42;2.00;;;;;;;25.23;38.31;98937.30;1751218;81;21051;-67